Time;durP1;ratioP1;P1;durP2;ratioP2;P2;SDS_P1;SDS_P2;PMS_P1;PMS_P2;Temp;Humidity;BMP_temperature;BMP_pressure;BME280_temperature;BME280_humidity;BME280_pressure;Samples;Min_cycle;Max_cycle;Signal;HPM_P1;HPM_P2
2022/05/14 00:01:36;;;;;;;;;;;18.60;86.30;;;;;;5073864;28;20007;-89
2022/05/14 00:04:03;;;;;;;;;;;18.60;86.70;;;;;;5074587;28;19912;-90
2022/05/14 00:06:29;;;;;;;;;;;18.60;86.70;;;;;;5074479;28;20405;-90
2022/05/14 00:08:55;;;;;;;;;;;18.70;86.50;;;;;;5074381;28;20018;-90
2022/05/14 00:14:06;;;;;;;;;;;18.70;86.90;;;;;;5054668;28;19992;-90
2022/05/14 00:16:33;;;;;;;;;;;18.80;86.40;;;;;;5054230;28;19957;-90
2022/05/14 00:18:59;;;;;;;;;;;18.90;86.50;;;;;;5054241;28;19909;-91
2022/05/14 00:21:25;;;;;;;;;;;18.80;86.40;;;;;;5069188;28;19995;-90
2022/05/14 00:23:51;;;;;;;;;;;18.80;86.70;;;;;;5074163;28;19952;-90
2022/05/14 00:26:17;;;;;;;;;;;18.80;86.60;;;;;;5074151;28;19915;-90
2022/05/14 00:28:42;;;;;;;;;;;18.90;86.50;;;;;;5074158;28;19974;-90
2022/05/14 00:31:09;;;;;;;;;;;18.80;86.50;;;;;;5072518;28;19962;-89
2022/05/14 00:33:35;;;;;;;;;;;18.80;86.50;;;;;;5073850;28;20028;-89
2022/05/14 00:36:00;;;;;;;;;;;18.70;86.50;;;;;;5073459;28;20045;-89
2022/05/14 00:38:26;;;;;;;;;;;18.70;86.60;;;;;;5060025;28;19947;-90
2022/05/14 00:40:56;;;;;;;;;;;18.60;86.80;;;;;;5052616;28;20000;-90
2022/05/14 00:43:21;;;;;;;;;;;18.60;87.00;;;;;;5053852;28;19974;-89
2022/05/14 00:45:50;;;;;;;;;;;18.50;87.40;;;;;;5053785;28;20285;-90
2022/05/14 00:48:16;;;;;;;;;;;18.50;87.60;;;;;;5065652;28;19954;-90
2022/05/14 00:50:49;;;;;;;;;;;18.40;87.70;;;;;;5073689;28;20425;-89
2022/05/14 00:53:18;;;;;;;;;;;18.30;88.30;;;;;;5073597;28;19931;-90
2022/05/14 00:55:45;;;;;;;;;;;18.30;88.50;;;;;;5060197;28;19969;-89
2022/05/14 00:58:14;;;;;;;;;;;18.20;88.80;;;;;;5053579;28;19930;-89
2022/05/14 01:00:39;;;;;;;;;;;18.30;88.80;;;;;;5053494;28;19909;-89
2022/05/14 01:03:05;;;;;;;;;;;18.30;88.40;;;;;;5053452;28;19970;-89
2022/05/14 01:05:31;;;;;;;;;;;18.30;88.20;;;;;;5064336;28;19978;-90
2022/05/14 01:08:00;;;;;;;;;;;18.30;88.10;;;;;;5073367;28;20008;-89
2022/05/14 01:10:26;;;;;;;;;;;18.30;88.10;;;;;;5073319;28;20004;-89
2022/05/14 01:12:55;;;;;;;;;;;18.30;88.30;;;;;;5073595;28;19946;-90
2022/05/14 01:15:22;;;;;;;;;;;18.30;88.20;;;;;;5072542;28;20017;-90
2022/05/14 01:17:48;;;;;;;;;;;18.30;88.30;;;;;;5073621;28;19951;-90
2022/05/14 01:20:14;;;;;;;;;;;18.30;88.30;;;;;;5073219;28;19940;-90
2022/05/14 01:22:43;;;;;;;;;;;18.40;88.20;;;;;;5073179;28;19942;-90
2022/05/14 01:28:04;;;;;;;;;;;18.40;87.90;;;;;;5053076;28;19962;-90
2022/05/14 01:30:30;;;;;;;;;;;18.30;88.20;;;;;;5053129;28;19909;-90
2022/05/14 01:33:04;;;;;;;;;;;18.40;88.40;;;;;;5052720;28;19946;-90
2022/05/14 01:35:34;;;;;;;;;;;18.40;88.10;;;;;;5062620;28;20007;-90
2022/05/14 01:38:01;;;;;;;;;;;18.30;88.00;;;;;;5071430;28;20307;-90
2022/05/14 01:40:26;;;;;;;;;;;18.30;88.20;;;;;;5073303;28;19953;-89
2022/05/14 01:42:52;;;;;;;;;;;18.30;88.40;;;;;;5072975;28;19951;-90
2022/05/14 01:45:17;;;;;;;;;;;18.30;88.80;;;;;;5072904;28;20456;-89
2022/05/14 01:47:43;;;;;;;;;;;18.20;89.00;;;;;;5072608;28;20390;-90
2022/05/14 01:50:09;;;;;;;;;;;18.30;88.90;;;;;;5072888;28;20426;-90
2022/05/14 01:52:34;;;;;;;;;;;18.30;88.50;;;;;;5072882;28;20383;-90
2022/05/14 01:55:00;;;;;;;;;;;18.10;88.60;;;;;;5072841;28;20300;-90
2022/05/14 01:57:25;;;;;;;;;;;18.10;88.60;;;;;;5071931;28;20393;-90
2022/05/14 01:59:51;;;;;;;;;;;18.10;88.50;;;;;;5072865;28;20384;-90
2022/05/14 02:02:17;;;;;;;;;;;18.00;88.40;;;;;;5072749;28;19924;-90
2022/05/14 02:04:42;;;;;;;;;;;18.00;88.60;;;;;;5072709;28;19930;-90
2022/05/14 02:07:08;;;;;;;;;;;18.00;89.20;;;;;;5072021;28;19919;-90
2022/05/14 02:09:33;;;;;;;;;;;18.00;89.30;;;;;;5072702;28;19952;-90
2022/05/14 02:12:01;;;;;;;;;;;18.00;89.30;;;;;;5072677;28;19942;-90
2022/05/14 02:14:26;;;;;;;;;;;17.90;89.90;;;;;;5072800;28;19940;-90
2022/05/14 02:16:52;;;;;;;;;;;17.80;90.10;;;;;;5072627;28;20048;-90
2022/05/14 02:19:17;;;;;;;;;;;17.90;90.20;;;;;;5053708;28;20051;-90
2022/05/14 02:21:43;;;;;;;;;;;17.90;90.10;;;;;;5052528;28;20436;-90
2022/05/14 02:24:08;;;;;;;;;;;17.90;90.00;;;;;;5052519;28;19946;-90
2022/05/14 02:26:34;;;;;;;;;;;17.90;89.90;;;;;;5052517;28;20054;-89
2022/05/14 02:28:59;;;;;;;;;;;17.80;89.80;;;;;;5067814;28;20013;-90
2022/05/14 02:31:25;;;;;;;;;;;17.80;89.80;;;;;;5072529;28;19949;-90
2022/05/14 02:33:50;;;;;;;;;;;17.80;89.80;;;;;;5072441;28;20295;-89
2022/05/14 02:36:18;;;;;;;;;;;17.90;89.70;;;;;;5072471;28;20003;-90
2022/05/14 02:38:43;;;;;;;;;;;17.90;89.60;;;;;;5058844;28;19940;-89
2022/05/14 02:41:09;;;;;;;;;;;17.80;89.30;;;;;;5052427;28;19919;-90
2022/05/14 02:43:35;;;;;;;;;;;17.80;89.10;;;;;;5053741;28;19920;-89
2022/05/14 02:46:00;;;;;;;;;;;17.80;89.00;;;;;;5054798;28;19939;-90
2022/05/14 02:48:26;;;;;;;;;;;17.80;88.90;;;;;;5066775;28;19934;-90
2022/05/14 02:50:51;;;;;;;;;;;17.80;88.90;;;;;;5075915;28;19942;-90
2022/05/14 02:53:17;;;;;;;;;;;17.80;89.10;;;;;;5075899;28;19914;-90
2022/05/14 02:55:43;;;;;;;;;;;17.80;89.30;;;;;;5075789;28;19965;-90
2022/05/14 02:58:08;;;;;;;;;;;17.90;89.20;;;;;;5067803;28;19984;-90
2022/05/14 03:00:34;;;;;;;;;;;17.80;89.10;;;;;;5055749;28;19988;-90
2022/05/14 03:02:59;;;;;;;;;;;17.80;89.10;;;;;;5054353;28;20007;-90
2022/05/14 03:05:25;;;;;;;;;;;17.80;89.20;;;;;;5055708;28;19942;-90
2022/05/14 03:07:51;;;;;;;;;;;17.80;89.30;;;;;;5060819;28;20312;-89
2022/05/14 03:10:17;;;;;;;;;;;17.90;88.90;;;;;;5075554;28;19922;-90
2022/05/14 03:12:42;;;;;;;;;;;17.90;88.60;;;;;;5075635;28;19916;-90
2022/05/14 03:15:08;;;;;;;;;;;17.90;88.60;;;;;;5075514;28;19916;-90
2022/05/14 03:17:34;;;;;;;;;;;17.90;88.60;;;;;;5074743;28;20003;-90
2022/05/14 03:20:01;;;;;;;;;;;17.80;88.60;;;;;;5075500;28;20002;-89
2022/05/14 03:22:27;;;;;;;;;;;17.90;88.30;;;;;;5075356;28;20407;-89
2022/05/14 03:24:53;;;;;;;;;;;18.00;87.80;;;;;;5075382;28;19908;-90
2022/05/14 03:27:18;;;;;;;;;;;18.10;87.50;;;;;;5074960;28;19913;-89
2022/05/14 03:29:44;;;;;;;;;;;18.00;87.40;;;;;;5057881;28;19956;-89
2022/05/14 03:32:09;;;;;;;;;;;18.00;87.40;;;;;;5055112;28;19908;-90
2022/05/14 03:34:36;;;;;;;;;;;18.00;87.40;;;;;;5055053;28;19953;-90
2022/05/14 03:37:02;;;;;;;;;;;17.90;87.60;;;;;;5054845;28;19931;-89
2022/05/14 03:39:28;;;;;;;;;;;17.90;87.60;;;;;;5071787;28;19941;-90
2022/05/14 03:41:53;;;;;;;;;;;17.80;87.80;;;;;;5075057;28;19925;-90
2022/05/14 03:44:19;;;;;;;;;;;17.80;87.80;;;;;;5074966;28;19943;-89
2022/05/14 03:46:44;;;;;;;;;;;17.80;87.90;;;;;;5073644;28;19919;-90
2022/05/14 03:49:10;;;;;;;;;;;17.80;87.80;;;;;;5060394;28;19916;-90
2022/05/14 03:51:35;;;;;;;;;;;17.60;88.10;;;;;;5054880;28;20016;-90
2022/05/14 03:54:01;;;;;;;;;;;17.60;88.30;;;;;;5054868;28;20573;-90
2022/05/14 03:56:27;;;;;;;;;;;17.60;90.00;;;;;;5054644;28;19941;-89
2022/05/14 03:58:53;;;;;;;;;;;17.40;90.90;;;;;;5066202;28;20050;-89
2022/05/14 04:01:18;;;;;;;;;;;17.40;91.00;;;;;;5074625;28;20021;-90
2022/05/14 04:03:45;;;;;;;;;;;17.30;90.80;;;;;;5074537;28;19946;-90
2022/05/14 04:06:11;;;;;;;;;;;17.30;90.70;;;;;;5074542;28;19926;-89
2022/05/14 04:08:37;;;;;;;;;;;17.30;90.40;;;;;;5074209;28;19957;-90
2022/05/14 04:11:03;;;;;;;;;;;17.40;90.20;;;;;;5074450;28;19975;-90
2022/05/14 04:13:28;;;;;;;;;;;17.40;90.10;;;;;;5074324;28;19925;-89
2022/05/14 04:15:54;;;;;;;;;;;17.50;89.70;;;;;;5074245;28;20435;-89
2022/05/14 04:18:24;;;;;;;;;;;17.50;89.60;;;;;;5067474;28;19919;-90
2022/05/14 04:20:54;;;;;;;;;;;17.50;89.60;;;;;;5054363;28;19991;-89
2022/05/14 04:23:20;;;;;;;;;;;17.40;89.70;;;;;;5054244;28;19923;-90
2022/05/14 04:25:48;;;;;;;;;;;17.40;89.70;;;;;;5054180;28;19930;-90
2022/05/14 04:28:13;;;;;;;;;;;17.40;89.80;;;;;;5054133;28;19929;-90
2022/05/14 04:30:39;;;;;;;;;;;17.40;89.80;;;;;;5065662;28;19995;-90
2022/05/14 04:33:04;;;;;;;;;;;17.50;89.70;;;;;;5073510;28;19912;-89
2022/05/14 04:35:30;;;;;;;;;;;17.40;89.70;;;;;;5073644;28;19923;-90
2022/05/14 04:37:56;;;;;;;;;;;17.40;89.80;;;;;;5073265;28;20155;-90
2022/05/14 04:40:21;;;;;;;;;;;17.30;89.80;;;;;;5073872;28;19947;-89
2022/05/14 04:42:47;;;;;;;;;;;17.40;89.90;;;;;;5073767;28;19955;-89
2022/05/14 04:45:13;;;;;;;;;;;17.40;89.80;;;;;;5073723;28;19942;-90
2022/05/14 04:47:41;;;;;;;;;;;17.60;89.70;;;;;;5073143;28;19934;-89
2022/05/14 04:50:07;;;;;;;;;;;17.70;89.50;;;;;;5052391;28;19928;-89
2022/05/14 04:52:32;;;;;;;;;;;17.80;88.90;;;;;;5053587;28;19944;-89
2022/05/14 04:54:58;;;;;;;;;;;17.80;88.60;;;;;;5053547;28;19995;-89
2022/05/14 04:57:23;;;;;;;;;;;17.90;88.50;;;;;;5053449;28;19943;-89
2022/05/14 04:59:49;;;;;;;;;;;17.90;88.30;;;;;;5053370;28;19916;-89
2022/05/14 05:04:59;;;;;;;;;;;18.00;88.20;;;;;;5053495;28;19926;-89
2022/05/14 05:07:24;;;;;;;;;;;18.10;88.20;;;;;;5053028;28;19999;-89
2022/05/14 05:09:50;;;;;;;;;;;18.10;88.00;;;;;;5053647;28;19973;-89
2022/05/14 05:12:15;;;;;;;;;;;18.20;87.90;;;;;;5053387;28;19944;-89
2022/05/14 05:14:41;;;;;;;;;;;18.30;87.80;;;;;;5053304;28;19909;-89
2022/05/14 05:17:07;;;;;;;;;;;18.30;87.70;;;;;;5053186;28;19913;-89
2022/05/14 05:19:33;;;;;;;;;;;18.40;87.40;;;;;;5067735;28;20316;-89
2022/05/14 05:21:58;;;;;;;;;;;18.40;87.20;;;;;;5073177;28;19913;-89
2022/05/14 05:24:24;;;;;;;;;;;18.60;87.10;;;;;;5073199;28;20392;-89
2022/05/14 05:26:49;;;;;;;;;;;18.70;86.90;;;;;;5073162;28;19943;-89
2022/05/14 05:29:15;;;;;;;;;;;18.80;86.80;;;;;;5072425;28;19913;-90
2022/05/14 05:31:41;;;;;;;;;;;18.90;86.50;;;;;;5073105;28;19945;-89
2022/05/14 05:34:07;;;;;;;;;;;19.00;86.30;;;;;;5072713;28;20371;-89
2022/05/14 05:36:33;;;;;;;;;;;19.10;86.30;;;;;;5065729;22;19969;-90
2022/05/14 05:38:58;;;;;;;;;;;19.30;86.30;;;;;;5052658;28;19943;-89
2022/05/14 05:41:24;;;;;;;;;;;19.30;86.10;;;;;;5052881;28;19956;-89
2022/05/14 05:43:49;;;;;;;;;;;19.40;85.60;;;;;;5052919;28;19909;-90
2022/05/14 05:46:15;;;;;;;;;;;19.40;85.40;;;;;;5052813;28;20383;-90
2022/05/14 05:48:42;;;;;;;;;;;19.50;85.40;;;;;;5052757;28;19930;-88
2022/05/14 05:51:07;;;;;;;;;;;19.60;85.30;;;;;;5052902;28;19924;-89
2022/05/14 05:59:03;;;;;;;;;;;19.80;84.70;;;;;;5038440;28;20017;-89
2022/05/14 06:01:28;;;;;;;;;;;19.80;84.10;;;;;;5049026;28;19939;-90
2022/05/14 06:03:54;;;;;;;;;;;20.00;83.60;;;;;;5037565;28;19919;-90
2022/05/14 06:06:19;;;;;;;;;;;20.10;82.90;;;;;;5049860;28;20000;-89
2022/05/14 06:08:47;;;;;;;;;;;20.20;82.00;;;;;;5044992;28;19917;-89
2022/05/14 06:11:13;;;;;;;;;;;20.30;81.50;;;;;;5051261;28;20330;-89
2022/05/14 06:13:39;;;;;;;;;;;20.40;80.80;;;;;;5046202;28;19952;-90
2022/05/14 06:16:05;;;;;;;;;;;20.50;80.70;;;;;;5048646;28;20446;-89
2022/05/14 06:18:30;;;;;;;;;;;20.70;79.80;;;;;;5045068;28;19972;-90
2022/05/14 06:20:56;;;;;;;;;;;20.80;79.40;;;;;;5047554;28;20247;-89
2022/05/14 06:23:21;;;;;;;;;;;20.90;78.50;;;;;;5029579;28;19920;-90
2022/05/14 06:25:47;;;;;;;;;;;21.00;78.40;;;;;;5036046;28;19913;-89
2022/05/14 06:28:12;;;;;;;;;;;21.10;77.90;;;;;;5034521;28;19957;-89
2022/05/14 06:30:43;;;;;;;;;;;21.20;77.60;;;;;;5033872;28;19976;-89
2022/05/14 06:33:09;;;;;;;;;;;21.30;76.40;;;;;;5033154;28;19952;-90
2022/05/14 06:35:35;;;;;;;;;;;21.40;76.00;;;;;;5034541;28;19917;-90
2022/05/14 06:38:01;;;;;;;;;;;21.40;75.50;;;;;;5032891;28;20259;-90
2022/05/14 06:40:27;;;;;;;;;;;21.50;75.50;;;;;;5042984;28;19949;-89
2022/05/14 06:42:53;;;;;;;;;;;21.70;76.40;;;;;;5030683;28;20023;-90
2022/05/14 06:45:18;;;;;;;;;;;21.80;75.10;;;;;;5036564;28;19932;-89
2022/05/14 06:47:44;;;;;;;;;;;21.80;73.70;;;;;;5033316;28;19997;-89
2022/05/14 06:50:10;;;;;;;;;;;21.90;73.50;;;;;;5032518;28;19985;-89
2022/05/14 06:52:36;;;;;;;;;;;22.00;72.10;;;;;;5048887;28;19916;-90
2022/05/14 06:55:02;;;;;;;;;;;22.20;73.20;;;;;;5043516;28;20003;-89
2022/05/14 06:57:29;;;;;;;;;;;22.30;73.80;;;;;;5052837;28;20360;-89
2022/05/14 06:59:55;;;;;;;;;;;22.30;72.70;;;;;;5051779;28;19993;-90
2022/05/14 07:02:20;;;;;;;;;;;22.40;72.40;;;;;;5038778;28;19913;-89
2022/05/14 07:07:31;;;;;;;;;;;22.50;71.00;;;;;;5037404;28;19967;-89
2022/05/14 07:09:57;;;;;;;;;;;22.60;70.90;;;;;;5032675;28;19917;-90
2022/05/14 07:12:22;;;;;;;;;;;22.70;71.80;;;;;;5036531;28;19909;-90
2022/05/14 07:14:48;;;;;;;;;;;22.80;73.10;;;;;;5034196;28;19928;-89
2022/05/14 07:17:14;;;;;;;;;;;22.80;71.20;;;;;;5034685;28;19942;-90
2022/05/14 07:19:40;;;;;;;;;;;22.80;70.20;;;;;;5033114;28;19967;-89
2022/05/14 07:22:06;;;;;;;;;;;22.90;71.80;;;;;;5035124;28;19998;-90
2022/05/14 07:24:32;;;;;;;;;;;23.00;72.30;;;;;;5019769;28;20337;-89
2022/05/14 07:26:59;;;;;;;;;;;23.10;70.80;;;;;;5034744;28;19913;-90
2022/05/14 07:29:26;;;;;;;;;;;23.20;70.40;;;;;;5034160;28;19952;-89
2022/05/14 07:31:52;;;;;;;;;;;23.30;69.70;;;;;;5036927;28;19917;-90
2022/05/14 07:34:18;;;;;;;;;;;23.30;68.10;;;;;;5034242;28;19913;-89
2022/05/14 07:36:52;;;;;;;;;;;23.50;66.20;;;;;;5034897;28;19967;-90
2022/05/14 07:39:19;;;;;;;;;;;23.60;66.70;;;;;;5036137;28;19962;-90
2022/05/14 07:41:48;;;;;;;;;;;23.70;66.40;;;;;;5034870;28;19960;-89
2022/05/14 07:44:15;;;;;;;;;;;23.70;65.40;;;;;;5065586;22;19924;-95
2022/05/14 07:46:40;;;;;;;;;;;23.80;65.60;;;;;;5076028;28;19908;-96
2022/05/14 07:49:10;;;;;;;;;;;23.80;64.20;;;;;;5075860;28;19915;-96
2022/05/14 07:51:36;;;;;;;;;;;23.90;64.10;;;;;;5075449;28;20429;-96
2022/05/14 07:54:01;;;;;;;;;;;23.90;65.60;;;;;;5076148;28;19944;-96
2022/05/14 07:56:27;;;;;;;;;;;24.00;66.10;;;;;;5074152;28;20278;-96
2022/05/14 07:58:53;;;;;;;;;;;24.10;65.10;;;;;;5080746;28;20452;-96
2022/05/14 08:01:19;;;;;;;;;;;24.10;63.70;;;;;;5081584;28;19994;-96
2022/05/14 08:03:47;;;;;;;;;;;24.20;63.20;;;;;;5080068;28;19908;-96
2022/05/14 08:06:15;;;;;;;;;;;24.20;63.00;;;;;;5075814;28;20375;-96
2022/05/14 08:08:41;;;;;;;;;;;24.30;63.80;;;;;;5075371;28;19908;-95
2022/05/14 08:11:07;;;;;;;;;;;24.30;62.50;;;;;;5075458;28;19909;-96
2022/05/14 08:13:34;;;;;;;;;;;24.30;62.40;;;;;;5075766;28;19908;-96
2022/05/14 08:16:00;;;;;;;;;;;24.40;61.30;;;;;;5075788;28;19966;-96
2022/05/14 08:18:25;;;;;;;;;;;24.50;60.60;;;;;;5075576;28;19912;-96
2022/05/14 08:20:51;;;;;;;;;;;24.50;62.50;;;;;;5074205;28;19947;-96
2022/05/14 08:26:02;;;;;;;;;;;24.60;62.20;;;;;;5075713;28;20277;-96
2022/05/14 08:28:27;;;;;;;;;;;24.60;62.80;;;;;;5075386;28;19957;-96
2022/05/14 08:30:53;;;;;;;;;;;24.70;62.10;;;;;;5074948;28;19909;-96
2022/05/14 08:33:19;;;;;;;;;;;24.70;58.80;;;;;;5084334;28;19917;-96
2022/05/14 08:35:46;;;;;;;;;;;24.80;60.80;;;;;;5092224;28;20214;-96
2022/05/14 08:46:03;;;;;;;;;;;25.10;61.20;;;;;;5222125;22;19925;-96
2022/05/14 08:48:37;;;;;;;;;;;25.20;62.50;;;;;;5077353;28;19912;-96
2022/05/14 08:51:09;;;;;;;;;;;25.40;64.40;;;;;;5077905;28;19909;-96
2022/05/14 09:22:39;;;;;;;;;;;26.80;59.70;;;;;;5104458;22;19932;-96
2022/05/14 09:25:05;;;;;;;;;;;26.90;57.90;;;;;;5076232;28;19956;-96
2022/05/14 09:27:46;;;;;;;;;;;27.00;55.80;;;;;;5074758;28;19908;-96
2022/05/14 09:30:25;;;;;;;;;;;27.00;55.80;;;;;;5074945;28;19919;-96
2022/05/14 09:32:51;;;;;;;;;;;26.90;58.20;;;;;;5075550;28;19913;-96
2022/05/14 09:35:27;;;;;;;;;;;26.80;56.30;;;;;;5078173;28;19897;-96
2022/05/14 09:38:07;;;;;;;;;;;26.90;56.80;;;;;;5075971;28;19912;-96
2022/05/14 09:40:35;;;;;;;;;;;27.00;55.80;;;;;;5059556;28;19981;-96
2022/05/14 09:43:10;;;;;;;;;;;27.10;55.40;;;;;;5077388;28;19901;-96
2022/05/14 09:45:37;;;;;;;;;;;27.20;55.80;;;;;;5075183;28;19936;-96
2022/05/14 09:53:24;;;;;;;;;;;27.70;53.60;;;;;;5656108;22;19924;-95
2022/05/14 09:56:10;;;;;;;;;;;27.70;53.60;;;;;;5067978;28;19940;-96
2022/05/14 09:58:36;;;;;;;;;;;27.80;53.80;;;;;;5075640;28;19944;-96
2022/05/14 10:01:36;;;;;;;;;;;27.70;52.00;;;;;;5075345;28;19920;-96
2022/05/14 10:04:39;;;;;;;;;;;27.70;52.00;;;;;;5077647;28;20289;-96
2022/05/14 10:07:12;;;;;;;;;;;27.70;55.10;;;;;;5063483;28;20421;-96
2022/05/14 10:09:45;;;;;;;;;;;27.80;53.20;;;;;;5068479;28;19909;-96
2022/05/14 10:12:20;;;;;;;;;;;27.80;52.40;;;;;;5068425;28;19948;-96
2022/05/14 10:14:52;;;;;;;;;;;27.70;51.50;;;;;;5071309;28;19916;-96
2022/05/14 10:17:21;;;;;;;;;;;27.50;51.00;;;;;;5074082;28;19912;-96
2022/05/14 10:19:50;;;;;;;;;;;27.50;53.20;;;;;;5073957;28;19908;-96
2022/05/14 10:22:22;;;;;;;;;;;27.70;53.80;;;;;;5075389;28;19991;-96
2022/05/14 10:28:11;;;;;;;;;;;28.10;54.40;;;;;;5076748;28;19988;-96
2022/05/14 10:30:49;;;;;;;;;;;28.40;50.10;;;;;;5080623;28;19909;-96
2022/05/14 10:33:25;;;;;;;;;;;28.60;51.10;;;;;;5080844;28;19916;-96
2022/05/14 10:36:01;;;;;;;;;;;28.80;54.70;;;;;;5083641;28;19905;-96
2022/05/14 10:38:53;;;;;;;;;;;29.10;51.30;;;;;;5080510;28;19916;-96
2022/05/14 10:41:29;;;;;;;;;;;29.10;47.80;;;;;;5081061;28;19924;-96
2022/05/14 10:44:11;;;;;;;;;;;29.20;48.50;;;;;;5080572;28;19915;-96
2022/05/14 10:46:38;;;;;;;;;;;29.00;46.60;;;;;;5079501;28;19909;-96
2022/05/14 10:49:11;;;;;;;;;;;28.70;45.70;;;;;;5072898;28;19916;-96
2022/05/14 10:51:51;;;;;;;;;;;28.30;46.20;;;;;;5078501;28;20443;-96
2022/05/14 10:54:19;;;;;;;;;;;28.10;48.20;;;;;;5079173;28;19928;-96
2022/05/14 10:56:59;;;;;;;;;;;28.20;50.70;;;;;;5080132;28;19924;-96
2022/05/14 10:59:33;;;;;;;;;;;28.30;50.10;;;;;;5079006;28;19968;-96
2022/05/14 11:02:23;;;;;;;;;;;28.40;47.60;;;;;;5079502;28;19916;-96
2022/05/14 11:04:51;;;;;;;;;;;28.40;47.50;;;;;;5078493;28;19916;-96
2022/05/14 11:07:35;;;;;;;;;;;28.30;47.00;;;;;;5079519;28;20007;-96
2022/05/14 11:10:34;;;;;;;;;;;28.50;49.90;;;;;;5079855;28;19909;-96
2022/05/14 11:13:17;;;;;;;;;;;28.60;49.00;;;;;;5078729;28;19935;-96
2022/05/14 11:15:44;;;;;;;;;;;28.70;49.00;;;;;;5078495;28;19909;-96
2022/05/14 11:18:15;;;;;;;;;;;28.70;49.50;;;;;;5078825;28;19916;-96
2022/05/14 11:20:52;;;;;;;;;;;28.70;48.80;;;;;;5078496;28;19931;-96
2022/05/14 11:23:28;;;;;;;;;;;28.40;50.20;;;;;;5079202;28;19973;-96
2022/05/14 11:26:08;;;;;;;;;;;28.30;49.60;;;;;;5079570;28;19893;-96
2022/05/14 11:28:39;;;;;;;;;;;28.40;49.30;;;;;;5079666;28;19904;-96
2022/05/14 11:31:17;;;;;;;;;;;28.40;46.80;;;;;;5079316;28;19909;-96
2022/05/14 11:33:46;;;;;;;;;;;28.40;47.50;;;;;;5079162;28;19912;-96
2022/05/14 11:36:22;;;;;;;;;;;28.40;49.00;;;;;;5078855;28;19996;-96
2022/05/14 11:39:14;;;;;;;;;;;28.30;49.60;;;;;;5078504;28;19948;-96
2022/05/14 11:41:50;;;;;;;;;;;28.10;49.80;;;;;;5074746;28;19931;-96
2022/05/14 11:44:45;;;;;;;;;;;28.00;51.10;;;;;;5078022;28;19909;-96
2022/05/14 11:47:29;;;;;;;;;;;28.20;51.30;;;;;;5065522;28;19900;-96
2022/05/14 11:49:57;;;;;;;;;;;28.30;49.80;;;;;;5078886;28;19909;-96
2022/05/14 11:52:32;;;;;;;;;;;28.50;47.80;;;;;;5077146;28;19907;-96
2022/05/14 11:55:23;;;;;;;;;;;28.50;48.30;;;;;;5078014;28;19939;-96
2022/05/14 11:57:55;;;;;;;;;;;28.50;49.60;;;;;;5077328;28;19924;-96
2022/05/14 12:00:27;;;;;;;;;;;28.50;49.20;;;;;;5077452;28;19932;-96
2022/05/14 12:03:02;;;;;;;;;;;28.50;48.70;;;;;;5077766;28;19913;-96
2022/05/14 12:05:28;;;;;;;;;;;28.30;47.50;;;;;;5077144;28;19932;-96
2022/05/14 12:08:06;;;;;;;;;;;28.00;47.60;;;;;;5077290;28;19916;-96
2022/05/14 12:10:54;;;;;;;;;;;28.10;49.60;;;;;;5077377;28;19893;-96
2022/05/14 12:13:24;;;;;;;;;;;28.20;51.50;;;;;;5076119;28;19909;-96
2022/05/14 12:15:52;;;;;;;;;;;28.20;49.30;;;;;;5075814;28;19976;-96
2022/05/14 12:18:20;;;;;;;;;;;28.30;48.40;;;;;;5077545;28;19909;-96
2022/05/14 12:21:01;;;;;;;;;;;28.40;49.30;;;;;;5060470;28;19909;-96
2022/05/14 12:23:33;;;;;;;;;;;28.60;49.60;;;;;;5077713;28;19909;-96
2022/05/14 12:26:00;;;;;;;;;;;28.90;50.30;;;;;;5078153;28;19935;-96
2022/05/14 12:28:33;;;;;;;;;;;29.30;48.30;;;;;;5077303;28;19909;-96
2022/05/14 12:34:13;;;;;;;;;;;29.90;47.40;;;;;;5079041;28;19923;-96
2022/05/14 12:37:00;;;;;;;;;;;30.00;46.60;;;;;;5079307;28;19921;-96
2022/05/14 12:39:29;;;;;;;;;;;29.60;47.30;;;;;;5078355;28;19893;-96
2022/05/14 12:42:04;;;;;;;;;;;29.20;47.70;;;;;;5074101;28;19996;-96
2022/05/14 12:44:38;;;;;;;;;;;28.90;46.90;;;;;;5076591;28;19956;-96
2022/05/14 12:47:05;;;;;;;;;;;28.70;47.90;;;;;;5076874;28;19980;-96
2022/05/14 12:49:37;;;;;;;;;;;28.60;48.90;;;;;;5078846;28;19915;-96
2022/05/14 12:52:12;;;;;;;;;;;28.50;48.40;;;;;;5077943;28;19909;-96
2022/05/14 12:54:57;;;;;;;;;;;28.60;48.30;;;;;;5077826;28;19916;-96
2022/05/14 12:57:30;;;;;;;;;;;28.80;49.00;;;;;;5077761;28;19921;-96
2022/05/14 12:59:58;;;;;;;;;;;29.20;48.80;;;;;;5077573;28;19968;-96
2022/05/14 13:02:28;;;;;;;;;;;30.30;47.20;;;;;;5070644;22;20018;-91
2022/05/14 13:04:55;;;;;;;;;;;31.60;43.20;;;;;;5053595;28;19916;-91
2022/05/14 13:07:21;;;;;;;;;;;33.30;40.20;;;;;;5053784;28;19909;-91
2022/05/14 13:09:47;;;;;;;;;;;35.10;35.10;;;;;;5053317;28;19913;-92
2022/05/14 13:12:18;;;;;;;;;;;36.70;33.10;;;;;;5053438;28;19909;-92
2022/05/14 13:14:49;;;;;;;;;;;37.70;30.80;;;;;;5053448;28;20008;-92
2022/05/14 13:17:14;;;;;;;;;;;38.60;29.10;;;;;;5053334;28;19923;-92
2022/05/14 13:19:41;;;;;;;;;;;38.10;29.50;;;;;;5048783;28;20356;-91
2022/05/14 13:22:31;;;;;;;;;;;39.20;28.60;;;;;;5045278;28;19991;-92
2022/05/14 13:24:57;;;;;;;;;;;39.90;27.40;;;;;;5029966;28;20371;-92
2022/05/14 13:27:28;;;;;;;;;;;39.50;28.40;;;;;;5023896;28;19960;-92
2022/05/14 13:30:02;;;;;;;;;;;39.20;27.40;;;;;;5032092;28;19959;-92
2022/05/14 13:32:27;;;;;;;;;;;38.50;30.30;;;;;;5032953;28;19920;-92
2022/05/14 13:37:49;;;;;;;;;;;37.70;30.20;;;;;;5032734;28;20379;-92
2022/05/14 13:40:17;;;;;;;;;;;37.00;30.10;;;;;;5032915;28;19914;-91
2022/05/14 13:42:54;;;;;;;;;;;36.20;31.70;;;;;;5033205;28;20382;-91
2022/05/14 13:45:19;;;;;;;;;;;35.70;33.90;;;;;;5033089;28;19909;-91
2022/05/14 13:47:49;;;;;;;;;;;35.20;34.30;;;;;;5033085;28;19963;-91
2022/05/14 13:50:21;;;;;;;;;;;34.40;36.60;;;;;;5024470;28;19960;-91
2022/05/14 13:52:51;;;;;;;;;;;33.40;37.50;;;;;;5013353;28;19910;-91
2022/05/14 13:55:27;;;;;;;;;;;32.50;39.50;;;;;;5013649;28;19973;-91
2022/05/14 13:57:57;;;;;;;;;;;31.80;41.60;;;;;;5032947;28;19912;-91
2022/05/14 14:00:24;;;;;;;;;;;31.30;43.00;;;;;;5032068;28;20003;-92
2022/05/14 14:03:04;;;;;;;;;;;31.90;40.70;;;;;;5032742;28;19928;-92
2022/05/14 14:05:30;;;;;;;;;;;33.00;38.50;;;;;;5032965;28;19913;-91
2022/05/14 14:07:56;;;;;;;;;;;34.10;37.10;;;;;;5032932;28;19909;-91
2022/05/14 14:10:28;;;;;;;;;;;35.10;34.90;;;;;;5032572;28;20019;-92
2022/05/14 14:12:53;;;;;;;;;;;36.10;33.70;;;;;;5032905;28;19967;-92
2022/05/14 14:15:20;;;;;;;;;;;37.30;31.40;;;;;;5032537;28;19913;-91
2022/05/14 14:17:49;;;;;;;;;;;38.30;30.30;;;;;;5033116;28;19984;-92
2022/05/14 14:20:14;;;;;;;;;;;38.80;31.10;;;;;;5032259;28;19945;-92
2022/05/14 14:22:41;;;;;;;;;;;39.20;29.40;;;;;;5032693;28;19945;-92
2022/05/14 14:25:08;;;;;;;;;;;40.20;27.80;;;;;;5033098;28;19937;-92
2022/05/14 14:27:34;;;;;;;;;;;41.30;26.30;;;;;;5032773;28;19955;-92
2022/05/14 14:30:00;;;;;;;;;;;41.80;25.50;;;;;;5027242;28;19917;-92
2022/05/14 14:32:26;;;;;;;;;;;41.90;25.50;;;;;;5012890;28;19910;-92
2022/05/14 14:34:52;;;;;;;;;;;42.10;25.10;;;;;;5012948;28;19917;-92
2022/05/14 14:37:17;;;;;;;;;;;42.00;25.80;;;;;;5012900;28;20012;-92
2022/05/14 14:39:44;;;;;;;;;;;41.20;26.60;;;;;;5016944;28;20048;-92
2022/05/14 14:42:12;;;;;;;;;;;40.90;28.60;;;;;;5036384;28;19920;-92
2022/05/14 14:44:41;;;;;;;;;;;40.70;27.10;;;;;;5035989;28;20000;-92
2022/05/14 14:47:07;;;;;;;;;;;40.60;28.00;;;;;;5036241;28;19913;-92
2022/05/14 14:49:33;;;;;;;;;;;40.10;28.50;;;;;;5034934;28;19920;-92
2022/05/14 14:51:59;;;;;;;;;;;40.60;27.40;;;;;;5016432;28;20294;-92
2022/05/14 14:54:24;;;;;;;;;;;41.90;25.30;;;;;;5016337;28;20345;-92
2022/05/14 14:56:50;;;;;;;;;;;41.40;27.20;;;;;;5016260;28;19917;-92
2022/05/14 14:59:16;;;;;;;;;;;41.60;26.10;;;;;;5016223;28;19909;-92
2022/05/14 15:01:46;;;;;;;;;;;40.40;27.50;;;;;;5034750;28;20007;-92
2022/05/14 15:04:14;;;;;;;;;;;39.60;29.30;;;;;;5035968;28;19910;-92
2022/05/14 15:06:40;;;;;;;;;;;39.20;29.10;;;;;;5035937;28;19908;-92
2022/05/14 15:09:06;;;;;;;;;;;38.50;30.00;;;;;;5035850;28;19909;-92
2022/05/14 15:11:31;;;;;;;;;;;38.10;30.60;;;;;;5018586;28;19914;-91
2022/05/14 15:14:02;;;;;;;;;;;37.10;32.10;;;;;;5015955;28;19913;-92
2022/05/14 15:16:28;;;;;;;;;;;36.90;32.70;;;;;;5015786;28;20370;-92
2022/05/14 15:18:53;;;;;;;;;;;36.70;33.70;;;;;;5015897;28;19909;-91
2022/05/14 15:21:19;;;;;;;;;;;36.70;34.10;;;;;;5030592;28;20006;-91
2022/05/14 15:23:45;;;;;;;;;;;36.00;35.30;;;;;;5035536;28;19999;-91
2022/05/14 15:26:12;;;;;;;;;;;35.60;34.90;;;;;;5035521;28;20363;-91
2022/05/14 15:28:39;;;;;;;;;;;35.00;35.50;;;;;;5035439;28;19945;-91
2022/05/14 15:31:08;;;;;;;;;;;34.20;37.00;;;;;;5035445;28;19952;-91
2022/05/14 15:33:34;;;;;;;;;;;34.00;37.70;;;;;;5034955;28;19913;-91
2022/05/14 15:35:59;;;;;;;;;;;33.90;37.70;;;;;;5016274;28;19921;-92